Aviation Digital Data Service (ADDS)

Output produced by TAFs form (0004 UTC 07 March 2015)
found at http://www.aviationweather.gov/adds/tafs/
 
KABE 062345Z 0700/0724 25005KT P6SM SCT250 
     FM071500 25009KT P6SM SCT150 
     FM071800 24011G20KT P6SM SCT080 OVC120 
     FM072300 21006KT P6SM BKN040 OVC090